sensor_id;sensor_type;location;lat;lon;timestamp;temperature;humidity
10433;DHT22;5263;48.680;9.004;2023-11-19T00:02:19;7.20;99.90
10433;DHT22;5263;48.680;9.004;2023-11-19T00:04:45;7.30;99.90
10433;DHT22;5263;48.680;9.004;2023-11-19T00:07:10;7.30;99.90
10433;DHT22;5263;48.680;9.004;2023-11-19T00:09:38;7.40;99.90
10433;DHT22;5263;48.680;9.004;2023-11-19T00:12:05;7.40;99.90
10433;DHT22;5263;48.680;9.004;2023-11-19T00:14:31;7.40;99.90
10433;DHT22;5263;48.680;9.004;2023-11-19T00:16:56;7.50;99.90
10433;DHT22;5263;48.680;9.004;2023-11-19T00:19:22;7.50;99.90
10433;DHT22;5263;48.680;9.004;2023-11-19T00:21:47;7.50;99.90
10433;DHT22;5263;48.680;9.004;2023-11-19T00:24:13;7.60;99.90
10433;DHT22;5263;48.680;9.004;2023-11-19T00:26:42;7.60;99.90
10433;DHT22;5263;48.680;9.004;2023-11-19T00:29:07;7.60;99.90
10433;DHT22;5263;48.680;9.004;2023-11-19T00:31:33;7.70;99.90
10433;DHT22;5263;48.680;9.004;2023-11-19T00:33:58;7.80;99.90
10433;DHT22;5263;48.680;9.004;2023-11-19T00:36:24;7.80;99.90
10433;DHT22;5263;48.680;9.004;2023-11-19T00:38:51;7.80;99.90
10433;DHT22;5263;48.680;9.004;2023-11-19T00:41:18;7.90;99.90
10433;DHT22;5263;48.680;9.004;2023-11-19T00:43:44;8.00;99.90
10433;DHT22;5263;48.680;9.004;2023-11-19T00:46:09;8.00;99.90
10433;DHT22;5263;48.680;9.004;2023-11-19T00:48:36;8.10;99.90
10433;DHT22;5263;48.680;9.004;2023-11-19T00:51:02;8.20;99.90
10433;DHT22;5263;48.680;9.004;2023-11-19T00:53:29;8.20;99.90
10433;DHT22;5263;48.680;9.004;2023-11-19T00:55:55;8.30;99.90
10433;DHT22;5263;48.680;9.004;2023-11-19T00:58:21;8.30;99.90
10433;DHT22;5263;48.680;9.004;2023-11-19T01:00:46;8.40;99.90
10433;DHT22;5263;48.680;9.004;2023-11-19T01:03:12;8.40;99.90
10433;DHT22;5263;48.680;9.004;2023-11-19T01:05:38;8.50;99.90
10433;DHT22;5263;48.680;9.004;2023-11-19T01:08:04;8.50;99.90
10433;DHT22;5263;48.680;9.004;2023-11-19T01:10:30;8.60;99.90
10433;DHT22;5263;48.680;9.004;2023-11-19T01:12:56;8.60;99.90
10433;DHT22;5263;48.680;9.004;2023-11-19T01:15:21;8.60;99.90
10433;DHT22;5263;48.680;9.004;2023-11-19T01:17:48;8.60;99.90
10433;DHT22;5263;48.680;9.004;2023-11-19T01:20:14;8.70;99.90
10433;DHT22;5263;48.680;9.004;2023-11-19T01:22:40;8.70;99.90
10433;DHT22;5263;48.680;9.004;2023-11-19T01:25:06;8.80;99.90
10433;DHT22;5263;48.680;9.004;2023-11-19T01:27:32;8.80;99.90
10433;DHT22;5263;48.680;9.004;2023-11-19T01:30:00;8.80;99.90
10433;DHT22;5263;48.680;9.004;2023-11-19T01:32:28;8.70;99.90
10433;DHT22;5263;48.680;9.004;2023-11-19T01:34:54;8.80;99.90
10433;DHT22;5263;48.680;9.004;2023-11-19T01:37:20;8.80;99.90
10433;DHT22;5263;48.680;9.004;2023-11-19T01:39:45;8.90;99.90
10433;DHT22;5263;48.680;9.004;2023-11-19T01:42:11;8.90;99.90
10433;DHT22;5263;48.680;9.004;2023-11-19T01:44:41;8.80;99.90
10433;DHT22;5263;48.680;9.004;2023-11-19T01:47:06;8.90;99.90
10433;DHT22;5263;48.680;9.004;2023-11-19T01:49:32;8.90;99.90
10433;DHT22;5263;48.680;9.004;2023-11-19T01:51:58;8.90;99.90
10433;DHT22;5263;48.680;9.004;2023-11-19T01:54:25;8.90;99.90
10433;DHT22;5263;48.680;9.004;2023-11-19T01:56:52;8.90;99.90
10433;DHT22;5263;48.680;9.004;2023-11-19T01:59:18;8.90;99.90
10433;DHT22;5263;48.680;9.004;2023-11-19T02:01:46;9.00;99.90
10433;DHT22;5263;48.680;9.004;2023-11-19T02:04:11;9.00;99.90
10433;DHT22;5263;48.680;9.004;2023-11-19T02:06:40;9.00;99.90
10433;DHT22;5263;48.680;9.004;2023-11-19T02:09:08;9.00;99.90
10433;DHT22;5263;48.680;9.004;2023-11-19T02:11:35;9.10;99.90
10433;DHT22;5263;48.680;9.004;2023-11-19T02:14:01;9.10;99.90
10433;DHT22;5263;48.680;9.004;2023-11-19T02:16:29;9.20;99.90
10433;DHT22;5263;48.680;9.004;2023-11-19T02:18:55;9.10;99.90
10433;DHT22;5263;48.680;9.004;2023-11-19T02:21:20;9.20;99.90
10433;DHT22;5263;48.680;9.004;2023-11-19T02:23:46;9.10;99.90
10433;DHT22;5263;48.680;9.004;2023-11-19T02:28:39;9.20;99.90
10433;DHT22;5263;48.680;9.004;2023-11-19T02:31:05;9.20;99.90
10433;DHT22;5263;48.680;9.004;2023-11-19T02:33:35;9.20;99.90
10433;DHT22;5263;48.680;9.004;2023-11-19T02:36:01;9.20;99.90
10433;DHT22;5263;48.680;9.004;2023-11-19T02:38:27;9.20;99.90
10433;DHT22;5263;48.680;9.004;2023-11-19T02:40:53;9.20;99.90
10433;DHT22;5263;48.680;9.004;2023-11-19T02:43:18;9.20;99.90
10433;DHT22;5263;48.680;9.004;2023-11-19T02:45:44;9.20;99.90
10433;DHT22;5263;48.680;9.004;2023-11-19T02:48:11;9.30;99.90
10433;DHT22;5263;48.680;9.004;2023-11-19T02:50:36;9.20;99.90
10433;DHT22;5263;48.680;9.004;2023-11-19T02:53:02;9.20;99.90
10433;DHT22;5263;48.680;9.004;2023-11-19T02:55:28;9.30;99.90
10433;DHT22;5263;48.680;9.004;2023-11-19T02:57:56;9.30;99.90
10433;DHT22;5263;48.680;9.004;2023-11-19T03:00:24;9.20;99.90
10433;DHT22;5263;48.680;9.004;2023-11-19T03:02:53;9.30;99.90
10433;DHT22;5263;48.680;9.004;2023-11-19T03:05:26;9.20;99.90
10433;DHT22;5263;48.680;9.004;2023-11-19T03:07:52;9.20;99.90
10433;DHT22;5263;48.680;9.004;2023-11-19T03:10:18;9.30;99.90
10433;DHT22;5263;48.680;9.004;2023-11-19T03:12:44;9.20;99.90
10433;DHT22;5263;48.680;9.004;2023-11-19T03:15:11;9.30;99.90
10433;DHT22;5263;48.680;9.004;2023-11-19T03:17:38;9.20;99.90
10433;DHT22;5263;48.680;9.004;2023-11-19T03:20:09;9.20;99.90
10433;DHT22;5263;48.680;9.004;2023-11-19T03:22:36;9.30;99.90
10433;DHT22;5263;48.680;9.004;2023-11-19T03:25:02;9.30;99.90
10433;DHT22;5263;48.680;9.004;2023-11-19T03:27:28;9.30;99.90
10433;DHT22;5263;48.680;9.004;2023-11-19T03:29:53;9.30;99.90
10433;DHT22;5263;48.680;9.004;2023-11-19T03:32:19;9.30;99.90
10433;DHT22;5263;48.680;9.004;2023-11-19T03:34:45;9.40;99.90
10433;DHT22;5263;48.680;9.004;2023-11-19T03:37:10;9.30;99.90
10433;DHT22;5263;48.680;9.004;2023-11-19T03:39:36;9.40;99.90
10433;DHT22;5263;48.680;9.004;2023-11-19T03:42:02;9.40;99.90
10433;DHT22;5263;48.680;9.004;2023-11-19T03:44:28;9.30;99.90
10433;DHT22;5263;48.680;9.004;2023-11-19T03:46:54;9.30;99.90
10433;DHT22;5263;48.680;9.004;2023-11-19T03:49:19;9.30;99.90
10433;DHT22;5263;48.680;9.004;2023-11-19T03:51:45;9.30;99.90
10433;DHT22;5263;48.680;9.004;2023-11-19T03:54:11;9.30;99.90
10433;DHT22;5263;48.680;9.004;2023-11-19T03:56:37;9.30;99.90
10433;DHT22;5263;48.680;9.004;2023-11-19T03:59:02;9.30;99.90
10433;DHT22;5263;48.680;9.004;2023-11-19T04:01:28;9.40;99.90
10433;DHT22;5263;48.680;9.004;2023-11-19T04:03:53;9.40;99.90
10433;DHT22;5263;48.680;9.004;2023-11-19T04:06:21;9.50;99.90
10433;DHT22;5263;48.680;9.004;2023-11-19T04:08:46;9.50;99.90
10433;DHT22;5263;48.680;9.004;2023-11-19T04:11:12;9.50;99.90
10433;DHT22;5263;48.680;9.004;2023-11-19T04:13:37;9.50;99.90
10433;DHT22;5263;48.680;9.004;2023-11-19T04:16:03;9.60;99.90
10433;DHT22;5263;48.680;9.004;2023-11-19T04:18:29;9.60;99.90
10433;DHT22;5263;48.680;9.004;2023-11-19T04:20:55;9.70;99.90
10433;DHT22;5263;48.680;9.004;2023-11-19T04:23:21;9.70;99.90
10433;DHT22;5263;48.680;9.004;2023-11-19T04:25:47;9.70;99.90
10433;DHT22;5263;48.680;9.004;2023-11-19T04:28:12;9.70;99.90
10433;DHT22;5263;48.680;9.004;2023-11-19T04:30:38;9.70;99.90
10433;DHT22;5263;48.680;9.004;2023-11-19T04:33:03;9.70;99.90
10433;DHT22;5263;48.680;9.004;2023-11-19T04:35:29;9.70;99.90
10433;DHT22;5263;48.680;9.004;2023-11-19T04:37:55;9.70;99.90
10433;DHT22;5263;48.680;9.004;2023-11-19T04:40:23;9.80;99.90
10433;DHT22;5263;48.680;9.004;2023-11-19T04:42:48;9.80;99.90
10433;DHT22;5263;48.680;9.004;2023-11-19T04:45:14;9.90;99.90
10433;DHT22;5263;48.680;9.004;2023-11-19T04:47:42;9.80;99.90
10433;DHT22;5263;48.680;9.004;2023-11-19T04:50:08;9.80;99.90
10433;DHT22;5263;48.680;9.004;2023-11-19T04:52:38;9.90;99.90
10433;DHT22;5263;48.680;9.004;2023-11-19T04:55:05;9.90;99.90
10433;DHT22;5263;48.680;9.004;2023-11-19T04:57:31;9.80;99.90
10433;DHT22;5263;48.680;9.004;2023-11-19T04:59:58;9.90;99.90
10433;DHT22;5263;48.680;9.004;2023-11-19T05:02:24;9.90;99.90
10433;DHT22;5263;48.680;9.004;2023-11-19T05:04:49;9.90;99.90
10433;DHT22;5263;48.680;9.004;2023-11-19T05:07:15;9.90;99.90
10433;DHT22;5263;48.680;9.004;2023-11-19T05:09:40;9.90;99.90
10433;DHT22;5263;48.680;9.004;2023-11-19T05:12:06;9.90;99.90
10433;DHT22;5263;48.680;9.004;2023-11-19T05:14:35;10.00;99.90
10433;DHT22;5263;48.680;9.004;2023-11-19T05:17:01;10.00;99.90
10433;DHT22;5263;48.680;9.004;2023-11-19T05:19:26;9.90;99.90
10433;DHT22;5263;48.680;9.004;2023-11-19T05:21:52;10.00;99.90
10433;DHT22;5263;48.680;9.004;2023-11-19T05:24:18;9.90;99.90
10433;DHT22;5263;48.680;9.004;2023-11-19T05:26:43;10.00;99.90
10433;DHT22;5263;48.680;9.004;2023-11-19T05:29:09;10.00;99.90
10433;DHT22;5263;48.680;9.004;2023-11-19T05:31:34;10.00;99.90
10433;DHT22;5263;48.680;9.004;2023-11-19T05:34:00;10.00;99.90
10433;DHT22;5263;48.680;9.004;2023-11-19T05:36:25;10.00;99.90
10433;DHT22;5263;48.680;9.004;2023-11-19T05:38:51;10.10;99.90
10433;DHT22;5263;48.680;9.004;2023-11-19T05:41:16;10.10;99.90
10433;DHT22;5263;48.680;9.004;2023-11-19T05:43:42;10.10;99.90
10433;DHT22;5263;48.680;9.004;2023-11-19T05:46:07;10.00;99.90
10433;DHT22;5263;48.680;9.004;2023-11-19T05:48:34;10.00;99.90
10433;DHT22;5263;48.680;9.004;2023-11-19T05:50:59;10.10;99.90
10433;DHT22;5263;48.680;9.004;2023-11-19T05:53:25;10.10;99.90
10433;DHT22;5263;48.680;9.004;2023-11-19T05:55:51;10.00;99.90
10433;DHT22;5263;48.680;9.004;2023-11-19T05:58:26;10.10;99.90
10433;DHT22;5263;48.680;9.004;2023-11-19T06:00:54;10.00;99.90
10433;DHT22;5263;48.680;9.004;2023-11-19T06:03:19;10.00;99.90
10433;DHT22;5263;48.680;9.004;2023-11-19T06:05:47;10.00;99.90
10433;DHT22;5263;48.680;9.004;2023-11-19T06:08:13;10.10;99.90
10433;DHT22;5263;48.680;9.004;2023-11-19T06:10:40;10.10;99.90
10433;DHT22;5263;48.680;9.004;2023-11-19T06:13:06;10.10;99.90
10433;DHT22;5263;48.680;9.004;2023-11-19T06:15:32;10.10;99.90
10433;DHT22;5263;48.680;9.004;2023-11-19T06:17:58;10.10;99.90
10433;DHT22;5263;48.680;9.004;2023-11-19T06:20:26;10.20;99.90
10433;DHT22;5263;48.680;9.004;2023-11-19T06:22:54;10.20;99.90
10433;DHT22;5263;48.680;9.004;2023-11-19T06:25:20;10.10;99.90
10433;DHT22;5263;48.680;9.004;2023-11-19T06:27:45;10.10;99.90
10433;DHT22;5263;48.680;9.004;2023-11-19T06:30:11;10.20;99.90
10433;DHT22;5263;48.680;9.004;2023-11-19T06:32:37;10.10;99.90
10433;DHT22;5263;48.680;9.004;2023-11-19T06:35:03;10.10;99.90
10433;DHT22;5263;48.680;9.004;2023-11-19T06:37:30;10.10;99.90
10433;DHT22;5263;48.680;9.004;2023-11-19T06:39:55;10.10;99.90
10433;DHT22;5263;48.680;9.004;2023-11-19T06:42:21;10.20;99.90
10433;DHT22;5263;48.680;9.004;2023-11-19T06:44:46;10.10;99.90
10433;DHT22;5263;48.680;9.004;2023-11-19T06:47:12;10.20;99.90
10433;DHT22;5263;48.680;9.004;2023-11-19T06:49:37;10.20;99.90
10433;DHT22;5263;48.680;9.004;2023-11-19T06:52:03;10.30;99.90
10433;DHT22;5263;48.680;9.004;2023-11-19T06:54:30;10.30;99.90
10433;DHT22;5263;48.680;9.004;2023-11-19T06:56:56;10.20;99.90
10433;DHT22;5263;48.680;9.004;2023-11-19T06:59:22;10.20;99.90
10433;DHT22;5263;48.680;9.004;2023-11-19T07:01:48;10.20;99.90
10433;DHT22;5263;48.680;9.004;2023-11-19T07:04:14;10.20;99.90
10433;DHT22;5263;48.680;9.004;2023-11-19T07:06:39;10.20;99.90
10433;DHT22;5263;48.680;9.004;2023-11-19T07:09:09;10.30;99.90
10433;DHT22;5263;48.680;9.004;2023-11-19T07:11:39;10.20;99.90
10433;DHT22;5263;48.680;9.004;2023-11-19T07:14:05;10.30;99.90
10433;DHT22;5263;48.680;9.004;2023-11-19T07:16:32;10.30;99.90
10433;DHT22;5263;48.680;9.004;2023-11-19T07:19:00;10.30;99.90
10433;DHT22;5263;48.680;9.004;2023-11-19T07:21:26;10.40;99.90
10433;DHT22;5263;48.680;9.004;2023-11-19T07:23:53;10.40;99.90
10433;DHT22;5263;48.680;9.004;2023-11-19T07:26:19;10.40;99.90
10433;DHT22;5263;48.680;9.004;2023-11-19T07:28:44;10.40;99.90
10433;DHT22;5263;48.680;9.004;2023-11-19T07:31:10;10.50;99.90
10433;DHT22;5263;48.680;9.004;2023-11-19T07:33:36;10.50;99.90
10433;DHT22;5263;48.680;9.004;2023-11-19T07:36:02;10.50;99.90
10433;DHT22;5263;48.680;9.004;2023-11-19T07:38:28;10.50;99.90
10433;DHT22;5263;48.680;9.004;2023-11-19T07:40:53;10.40;99.90
10433;DHT22;5263;48.680;9.004;2023-11-19T07:43:19;10.50;99.90
10433;DHT22;5263;48.680;9.004;2023-11-19T07:45:45;10.50;99.90
10433;DHT22;5263;48.680;9.004;2023-11-19T07:48:11;10.50;99.90
10433;DHT22;5263;48.680;9.004;2023-11-19T07:50:38;10.50;99.90
10433;DHT22;5263;48.680;9.004;2023-11-19T07:53:06;10.50;99.90
10433;DHT22;5263;48.680;9.004;2023-11-19T07:55:33;10.50;99.90
10433;DHT22;5263;48.680;9.004;2023-11-19T07:57:58;10.50;99.90
10433;DHT22;5263;48.680;9.004;2023-11-19T08:00:24;10.50;99.90
10433;DHT22;5263;48.680;9.004;2023-11-19T08:02:49;10.50;99.90
10433;DHT22;5263;48.680;9.004;2023-11-19T08:05:15;10.50;99.90
10433;DHT22;5263;48.680;9.004;2023-11-19T08:07:41;10.60;99.90
10433;DHT22;5263;48.680;9.004;2023-11-19T08:10:07;10.60;99.90
10433;DHT22;5263;48.680;9.004;2023-11-19T08:12:35;10.70;99.90
10433;DHT22;5263;48.680;9.004;2023-11-19T08:15:02;10.80;99.90
10433;DHT22;5263;48.680;9.004;2023-11-19T08:17:28;10.70;99.90
10433;DHT22;5263;48.680;9.004;2023-11-19T08:19:53;10.80;99.90
10433;DHT22;5263;48.680;9.004;2023-11-19T08:22:19;10.80;99.90
10433;DHT22;5263;48.680;9.004;2023-11-19T08:24:44;10.80;99.90
10433;DHT22;5263;48.680;9.004;2023-11-19T08:27:10;10.80;99.90
10433;DHT22;5263;48.680;9.004;2023-11-19T08:29:35;10.80;99.90
10433;DHT22;5263;48.680;9.004;2023-11-19T08:32:01;10.90;99.90
10433;DHT22;5263;48.680;9.004;2023-11-19T08:34:28;10.80;99.90
10433;DHT22;5263;48.680;9.004;2023-11-19T08:36:54;11.00;99.90
10433;DHT22;5263;48.680;9.004;2023-11-19T08:39:20;11.20;99.90
10433;DHT22;5263;48.680;9.004;2023-11-19T08:41:49;11.40;99.90
10433;DHT22;5263;48.680;9.004;2023-11-19T08:44:15;11.50;99.90
10433;DHT22;5263;48.680;9.004;2023-11-19T08:46:51;11.60;99.90
10433;DHT22;5263;48.680;9.004;2023-11-19T08:49:17;11.70;99.90
10433;DHT22;5263;48.680;9.004;2023-11-19T08:51:43;11.80;99.90
10433;DHT22;5263;48.680;9.004;2023-11-19T08:54:08;11.80;99.90
10433;DHT22;5263;48.680;9.004;2023-11-19T08:56:34;11.90;99.90
10433;DHT22;5263;48.680;9.004;2023-11-19T08:59:01;12.00;99.90
10433;DHT22;5263;48.680;9.004;2023-11-19T09:01:26;12.00;99.90
10433;DHT22;5263;48.680;9.004;2023-11-19T09:03:52;12.10;99.90
10433;DHT22;5263;48.680;9.004;2023-11-19T09:06:18;12.30;99.90
10433;DHT22;5263;48.680;9.004;2023-11-19T09:08:43;12.20;99.90
10433;DHT22;5263;48.680;9.004;2023-11-19T09:11:09;12.30;99.90
10433;DHT22;5263;48.680;9.004;2023-11-19T09:13:35;12.40;99.90
10433;DHT22;5263;48.680;9.004;2023-11-19T09:16:01;12.60;99.90
10433;DHT22;5263;48.680;9.004;2023-11-19T09:18:29;12.80;99.90
10433;DHT22;5263;48.680;9.004;2023-11-19T09:20:55;13.00;99.90
10433;DHT22;5263;48.680;9.004;2023-11-19T09:23:21;13.00;99.90
10433;DHT22;5263;48.680;9.004;2023-11-19T09:25:46;12.90;99.90
10433;DHT22;5263;48.680;9.004;2023-11-19T09:28:12;12.70;99.90
10433;DHT22;5263;48.680;9.004;2023-11-19T09:30:39;12.70;99.90
10433;DHT22;5263;48.680;9.004;2023-11-19T09:33:06;13.00;99.90
10433;DHT22;5263;48.680;9.004;2023-11-19T09:35:31;13.30;99.90
10433;DHT22;5263;48.680;9.004;2023-11-19T09:37:57;13.40;99.90
10433;DHT22;5263;48.680;9.004;2023-11-19T09:40:23;13.50;99.90
10433;DHT22;5263;48.680;9.004;2023-11-19T09:42:48;13.40;99.90
10433;DHT22;5263;48.680;9.004;2023-11-19T09:45:16;13.30;99.90
10433;DHT22;5263;48.680;9.004;2023-11-19T09:47:46;13.00;99.90
10433;DHT22;5263;48.680;9.004;2023-11-19T09:50:18;12.90;99.90
10433;DHT22;5263;48.680;9.004;2023-11-19T09:52:45;12.90;99.90
10433;DHT22;5263;48.680;9.004;2023-11-19T09:55:11;13.50;99.90
10433;DHT22;5263;48.680;9.004;2023-11-19T09:57:39;14.00;99.90
10433;DHT22;5263;48.680;9.004;2023-11-19T10:00:07;13.70;99.90
10433;DHT22;5263;48.680;9.004;2023-11-19T10:02:34;13.40;99.90
10433;DHT22;5263;48.680;9.004;2023-11-19T10:05:04;13.30;99.90
10433;DHT22;5263;48.680;9.004;2023-11-19T10:07:31;13.30;99.90
10433;DHT22;5263;48.680;9.004;2023-11-19T10:09:59;14.60;99.90
10433;DHT22;5263;48.680;9.004;2023-11-19T10:12:26;15.10;99.90
10433;DHT22;5263;48.680;9.004;2023-11-19T10:14:52;15.20;99.90
10433;DHT22;5263;48.680;9.004;2023-11-19T10:17:19;15.70;99.90
10433;DHT22;5263;48.680;9.004;2023-11-19T10:19:44;15.90;99.90
10433;DHT22;5263;48.680;9.004;2023-11-19T10:22:10;15.30;99.90
10433;DHT22;5263;48.680;9.004;2023-11-19T10:24:36;14.90;99.90
10433;DHT22;5263;48.680;9.004;2023-11-19T10:27:07;14.80;99.90
10433;DHT22;5263;48.680;9.004;2023-11-19T10:29:36;14.40;99.90
10433;DHT22;5263;48.680;9.004;2023-11-19T10:32:03;15.60;99.90
10433;DHT22;5263;48.680;9.004;2023-11-19T10:34:28;16.10;99.90
10433;DHT22;5263;48.680;9.004;2023-11-19T10:36:55;17.00;99.90
10433;DHT22;5263;48.680;9.004;2023-11-19T10:39:21;17.30;99.90
10433;DHT22;5263;48.680;9.004;2023-11-19T10:41:49;16.60;99.90
10433;DHT22;5263;48.680;9.004;2023-11-19T10:44:33;16.10;99.90
10433;DHT22;5263;48.680;9.004;2023-11-19T10:47:01;16.70;99.90
10433;DHT22;5263;48.680;9.004;2023-11-19T10:49:26;16.10;99.90
10433;DHT22;5263;48.680;9.004;2023-11-19T10:51:53;15.70;99.90
10433;DHT22;5263;48.680;9.004;2023-11-19T10:54:22;15.10;99.90
10433;DHT22;5263;48.680;9.004;2023-11-19T10:56:54;15.20;99.90
10433;DHT22;5263;48.680;9.004;2023-11-19T10:59:21;15.40;99.90
10433;DHT22;5263;48.680;9.004;2023-11-19T11:01:48;15.20;99.90
10433;DHT22;5263;48.680;9.004;2023-11-19T11:04:22;15.00;99.90
10433;DHT22;5263;48.680;9.004;2023-11-19T11:06:48;14.80;99.90
10433;DHT22;5263;48.680;9.004;2023-11-19T11:09:14;14.60;99.90
10433;DHT22;5263;48.680;9.004;2023-11-19T11:11:41;14.60;99.90
10433;DHT22;5263;48.680;9.004;2023-11-19T11:14:11;15.00;99.90
10433;DHT22;5263;48.680;9.004;2023-11-19T11:16:37;16.10;99.90
10433;DHT22;5263;48.680;9.004;2023-11-19T11:19:05;16.70;99.90
10433;DHT22;5263;48.680;9.004;2023-11-19T11:21:32;16.80;99.90
10433;DHT22;5263;48.680;9.004;2023-11-19T11:27:25;16.30;99.90
10433;DHT22;5263;48.680;9.004;2023-11-19T11:33:04;15.00;99.90
10433;DHT22;5263;48.680;9.004;2023-11-19T11:35:53;14.90;99.90
10433;DHT22;5263;48.680;9.004;2023-11-19T11:38:24;14.80;99.90
10433;DHT22;5263;48.680;9.004;2023-11-19T11:41:29;14.50;99.90
10433;DHT22;5263;48.680;9.004;2023-11-19T11:43:56;14.40;99.90
10433;DHT22;5263;48.680;9.004;2023-11-19T11:49:01;14.40;99.90
10433;DHT22;5263;48.680;9.004;2023-11-19T11:54:14;14.10;99.90
10433;DHT22;5263;48.680;9.004;2023-11-19T11:57:11;14.30;99.90
10433;DHT22;5263;48.680;9.004;2023-11-19T11:59:47;14.90;99.90
10433;DHT22;5263;48.680;9.004;2023-11-19T12:02:20;14.70;99.90
10433;DHT22;5263;48.680;9.004;2023-11-19T12:04:49;15.00;99.90
10433;DHT22;5263;48.680;9.004;2023-11-19T12:07:20;15.10;99.90
10433;DHT22;5263;48.680;9.004;2023-11-19T12:09:48;14.80;99.90
10433;DHT22;5263;48.680;9.004;2023-11-19T12:12:22;14.40;99.90
10433;DHT22;5263;48.680;9.004;2023-11-19T12:15:05;14.50;99.90
10433;DHT22;5263;48.680;9.004;2023-11-19T12:20:05;14.60;99.90
10433;DHT22;5263;48.680;9.004;2023-11-19T12:22:37;14.60;99.90
10433;DHT22;5263;48.680;9.004;2023-11-19T12:25:07;14.60;99.90
10433;DHT22;5263;48.680;9.004;2023-11-19T12:27:44;15.30;99.90
10433;DHT22;5263;48.680;9.004;2023-11-19T12:30:10;15.90;99.90
10433;DHT22;5263;48.680;9.004;2023-11-19T12:32:41;16.40;99.90
10433;DHT22;5263;48.680;9.004;2023-11-19T12:35:12;16.40;99.90
10433;DHT22;5263;48.680;9.004;2023-11-19T12:37:42;16.30;99.90
10433;DHT22;5263;48.680;9.004;2023-11-19T12:40:21;16.10;99.90
10433;DHT22;5263;48.680;9.004;2023-11-19T12:42:54;16.50;99.90
10433;DHT22;5263;48.680;9.004;2023-11-19T12:45:20;17.10;99.90
10433;DHT22;5263;48.680;9.004;2023-11-19T12:47:46;16.60;99.90
10433;DHT22;5263;48.680;9.004;2023-11-19T12:50:13;15.90;99.90
10433;DHT22;5263;48.680;9.004;2023-11-19T12:52:39;16.30;99.90
10433;DHT22;5263;48.680;9.004;2023-11-19T12:55:06;15.60;99.90
10433;DHT22;5263;48.680;9.004;2023-11-19T12:57:49;16.70;99.90
10433;DHT22;5263;48.680;9.004;2023-11-19T13:00:24;16.50;99.90
10433;DHT22;5263;48.680;9.004;2023-11-19T13:02:55;17.20;99.90
10433;DHT22;5263;48.680;9.004;2023-11-19T13:05:29;19.30;99.90
10433;DHT22;5263;48.680;9.004;2023-11-19T13:10:26;16.50;99.90
10433;DHT22;5263;48.680;9.004;2023-11-19T13:13:08;16.30;99.90
10433;DHT22;5263;48.680;9.004;2023-11-19T13:15:34;16.20;99.90
10433;DHT22;5263;48.680;9.004;2023-11-19T13:18:01;16.10;99.90
10433;DHT22;5263;48.680;9.004;2023-11-19T13:20:27;17.50;99.90
10433;DHT22;5263;48.680;9.004;2023-11-19T13:22:55;18.50;99.90
10433;DHT22;5263;48.680;9.004;2023-11-19T13:25:20;18.70;99.90
10433;DHT22;5263;48.680;9.004;2023-11-19T13:27:46;18.10;99.90
10433;DHT22;5263;48.680;9.004;2023-11-19T13:30:12;17.70;99.90
10433;DHT22;5263;48.680;9.004;2023-11-19T13:32:38;18.20;99.90
10433;DHT22;5263;48.680;9.004;2023-11-19T13:35:05;17.60;99.90
10433;DHT22;5263;48.680;9.004;2023-11-19T13:37:31;17.20;99.90
10433;DHT22;5263;48.680;9.004;2023-11-19T13:39:56;16.40;99.90
10433;DHT22;5263;48.680;9.004;2023-11-19T13:42:22;16.50;99.90
10433;DHT22;5263;48.680;9.004;2023-11-19T13:44:47;16.20;99.90
10433;DHT22;5263;48.680;9.004;2023-11-19T13:47:13;16.40;99.90
10433;DHT22;5263;48.680;9.004;2023-11-19T13:49:39;16.50;99.90
10433;DHT22;5263;48.680;9.004;2023-11-19T13:52:05;16.70;99.90
10433;DHT22;5263;48.680;9.004;2023-11-19T13:54:31;17.00;99.90
10433;DHT22;5263;48.680;9.004;2023-11-19T13:56:56;16.60;99.90
10433;DHT22;5263;48.680;9.004;2023-11-19T13:59:26;16.50;99.90
10433;DHT22;5263;48.680;9.004;2023-11-19T14:01:52;17.10;99.90
10433;DHT22;5263;48.680;9.004;2023-11-19T14:04:17;16.80;99.90
10433;DHT22;5263;48.680;9.004;2023-11-19T14:06:45;17.50;99.90
10433;DHT22;5263;48.680;9.004;2023-11-19T14:09:10;17.40;99.90
10433;DHT22;5263;48.680;9.004;2023-11-19T14:11:36;16.60;99.90
10433;DHT22;5263;48.680;9.004;2023-11-19T14:14:02;16.10;99.90
10433;DHT22;5263;48.680;9.004;2023-11-19T14:16:27;16.30;99.90
10433;DHT22;5263;48.680;9.004;2023-11-19T14:18:53;16.80;99.90
10433;DHT22;5263;48.680;9.004;2023-11-19T14:21:20;16.50;99.90
10433;DHT22;5263;48.680;9.004;2023-11-19T14:23:45;16.60;99.90
10433;DHT22;5263;48.680;9.004;2023-11-19T14:26:11;16.10;99.90
10433;DHT22;5263;48.680;9.004;2023-11-19T14:28:37;16.10;99.90
10433;DHT22;5263;48.680;9.004;2023-11-19T14:31:04;15.70;99.90
10433;DHT22;5263;48.680;9.004;2023-11-19T14:33:29;15.50;99.90
10433;DHT22;5263;48.680;9.004;2023-11-19T14:35:55;15.70;99.90
10433;DHT22;5263;48.680;9.004;2023-11-19T14:38:20;15.60;99.90
10433;DHT22;5263;48.680;9.004;2023-11-19T14:40:46;15.30;99.90
10433;DHT22;5263;48.680;9.004;2023-11-19T14:43:13;15.30;99.90
10433;DHT22;5263;48.680;9.004;2023-11-19T14:45:40;15.00;99.90
10433;DHT22;5263;48.680;9.004;2023-11-19T14:48:06;14.40;99.90
10433;DHT22;5263;48.680;9.004;2023-11-19T14:50:32;14.40;99.90
10433;DHT22;5263;48.680;9.004;2023-11-19T14:52:57;15.10;99.90
10433;DHT22;5263;48.680;9.004;2023-11-19T14:55:23;15.30;99.90
10433;DHT22;5263;48.680;9.004;2023-11-19T14:57:49;15.10;99.90
10433;DHT22;5263;48.680;9.004;2023-11-19T15:00:16;15.10;99.90
10433;DHT22;5263;48.680;9.004;2023-11-19T15:02:42;15.00;99.90
10433;DHT22;5263;48.680;9.004;2023-11-19T15:05:10;14.50;99.90
10433;DHT22;5263;48.680;9.004;2023-11-19T15:07:39;14.40;99.90
10433;DHT22;5263;48.680;9.004;2023-11-19T15:10:08;14.70;99.90
10433;DHT22;5263;48.680;9.004;2023-11-19T15:12:36;14.00;99.90
10433;DHT22;5263;48.680;9.004;2023-11-19T15:15:08;14.00;99.90
10433;DHT22;5263;48.680;9.004;2023-11-19T15:17:35;14.10;99.90
10433;DHT22;5263;48.680;9.004;2023-11-19T15:20:02;14.00;99.90
10433;DHT22;5263;48.680;9.004;2023-11-19T15:22:28;13.40;99.90
10433;DHT22;5263;48.680;9.004;2023-11-19T15:24:53;13.20;99.90
10433;DHT22;5263;48.680;9.004;2023-11-19T15:27:19;13.00;99.90
10433;DHT22;5263;48.680;9.004;2023-11-19T15:29:45;12.90;99.90
10433;DHT22;5263;48.680;9.004;2023-11-19T15:32:10;12.90;99.90
10433;DHT22;5263;48.680;9.004;2023-11-19T15:34:36;12.80;99.90
10433;DHT22;5263;48.680;9.004;2023-11-19T15:37:03;12.60;99.90
10433;DHT22;5263;48.680;9.004;2023-11-19T15:39:29;12.40;99.90
10433;DHT22;5263;48.680;9.004;2023-11-19T15:41:55;12.40;99.90
10433;DHT22;5263;48.680;9.004;2023-11-19T15:44:22;12.30;99.90
10433;DHT22;5263;48.680;9.004;2023-11-19T15:46:47;12.10;99.90
10433;DHT22;5263;48.680;9.004;2023-11-19T15:49:13;12.20;99.90
10433;DHT22;5263;48.680;9.004;2023-11-19T15:51:38;12.00;99.90
10433;DHT22;5263;48.680;9.004;2023-11-19T15:54:04;11.90;99.90
10433;DHT22;5263;48.680;9.004;2023-11-19T15:56:30;11.90;99.90
10433;DHT22;5263;48.680;9.004;2023-11-19T15:58:56;11.80;99.90
10433;DHT22;5263;48.680;9.004;2023-11-19T16:01:22;11.90;99.90
10433;DHT22;5263;48.680;9.004;2023-11-19T16:03:47;11.70;99.90
10433;DHT22;5263;48.680;9.004;2023-11-19T16:06:13;11.60;99.90
10433;DHT22;5263;48.680;9.004;2023-11-19T16:08:39;11.50;99.90
10433;DHT22;5263;48.680;9.004;2023-11-19T16:11:05;11.50;99.90